createdAt,value
2023-03-17T00:01:25.872Z,57.48
2023-03-17T00:03:55.173Z,57.35
2023-03-17T00:06:27.807Z,57.02
2023-03-17T00:08:57.373Z,57.29
2023-03-17T00:11:25.797Z,57.39
2023-03-17T00:13:53.969Z,57.84
2023-03-17T00:16:25.616Z,58.20
2023-03-17T00:18:55.058Z,58.02
2023-03-17T00:21:28.180Z,58.00
2023-03-17T00:23:56.435Z,58.11
2023-03-17T00:26:26.422Z,58.49
2023-03-17T00:28:57.835Z,58.78
2023-03-17T00:31:30.408Z,58.68
2023-03-17T00:33:59.086Z,58.39
2023-03-17T00:36:29.365Z,58.68
2023-03-17T00:38:58.339Z,58.47
2023-03-17T00:41:27.057Z,58.66
2023-03-17T00:43:55.383Z,59.01
2023-03-17T00:46:28.805Z,59.24
2023-03-17T00:48:58.387Z,59.07
2023-03-17T00:51:26.329Z,59.38
2023-03-17T00:53:56.507Z,59.32
2023-03-17T00:56:24.673Z,59.27
2023-03-17T00:58:52.817Z,60.01
2023-03-17T01:01:20.792Z,60.46
2023-03-17T01:03:50.089Z,60.22
2023-03-17T01:06:18.683Z,59.76
2023-03-17T01:08:47.401Z,59.50
2023-03-17T01:11:18.700Z,59.77
2023-03-17T01:13:48.815Z,58.97
2023-03-17T01:16:17.045Z,59.43
2023-03-17T01:18:45.560Z,59.02
2023-03-17T01:21:15.373Z,59.10
2023-03-17T01:23:43.654Z,58.86
2023-03-17T01:26:11.757Z,58.79
2023-03-17T01:28:39.702Z,59.35
2023-03-17T01:31:07.630Z,59.36
2023-03-17T01:33:35.512Z,59.22
2023-03-17T01:36:03.521Z,59.10
2023-03-17T01:38:32.840Z,59.24
2023-03-17T01:41:02.296Z,59.59
2023-03-17T01:43:31.644Z,59.55
2023-03-17T01:46:29.803Z,59.47
2023-03-17T01:49:21.046Z,59.51
2023-03-17T01:51:55.756Z,59.94
2023-03-17T01:54:31.697Z,59.98
2023-03-17T01:57:04.875Z,60.13
2023-03-17T01:59:37.675Z,60.46
2023-03-17T02:02:09.083Z,60.85
2023-03-17T02:04:40.132Z,60.77
2023-03-17T02:07:08.783Z,60.87
2023-03-17T02:09:41.965Z,60.80
2023-03-17T02:12:11.982Z,60.41
2023-03-17T02:14:39.954Z,60.41
2023-03-17T02:17:08.422Z,60.22
2023-03-17T02:19:36.394Z,60.39
2023-03-17T02:22:06.020Z,60.38
2023-03-17T02:24:37.180Z,59.99
2023-03-17T02:27:11.810Z,59.87
2023-03-17T02:29:40.393Z,59.43
2023-03-17T02:32:10.952Z,60.22
2023-03-17T02:34:38.869Z,59.64
2023-03-17T02:37:08.775Z,59.67
2023-03-17T02:39:37.660Z,59.64
2023-03-17T02:42:07.017Z,59.98
2023-03-17T02:44:35.707Z,59.68
2023-03-17T02:47:04.292Z,60.12
2023-03-17T02:49:35.652Z,60.27
2023-03-17T02:52:03.794Z,60.35
2023-03-17T02:54:33.143Z,60.76
2023-03-17T02:57:01.777Z,60.96
2023-03-17T02:59:29.795Z,60.78
2023-03-17T03:01:57.729Z,60.67
2023-03-17T03:04:26.212Z,60.71
2023-03-17T03:06:54.741Z,60.76
2023-03-17T03:09:22.717Z,60.93
2023-03-17T03:11:52.242Z,60.84
2023-03-17T03:14:20.158Z,60.90
2023-03-17T03:16:48.437Z,61.00
2023-03-17T03:19:16.413Z,61.84
2023-03-17T03:21:44.331Z,61.90
2023-03-17T03:24:12.276Z,61.30
2023-03-17T03:26:40.201Z,61.33
2023-03-17T03:29:09.486Z,61.85
2023-03-17T03:31:37.396Z,61.79
2023-03-17T03:34:05.884Z,61.07
2023-03-17T03:36:34.043Z,61.72
2023-03-17T03:39:02.075Z,61.82
2023-03-17T03:41:30.005Z,61.59
2023-03-17T03:43:57.895Z,61.84
2023-03-17T03:46:27.632Z,62.41
2023-03-17T03:48:56.220Z,62.10
2023-03-17T03:51:24.419Z,62.52
2023-03-17T03:53:52.405Z,62.82
2023-03-17T03:56:20.282Z,63.12
2023-03-17T03:58:48.295Z,63.42
2023-03-17T04:01:16.219Z,63.91
2023-03-17T04:03:47.242Z,64.39
2023-03-17T04:06:16.118Z,64.69
2023-03-17T04:08:44.166Z,64.49
2023-03-17T04:11:12.163Z,64.60
2023-03-17T04:13:40.081Z,64.13
2023-03-17T04:16:08.738Z,64.20
2023-03-17T04:18:36.863Z,64.34
2023-03-17T04:21:07.043Z,64.68
2023-03-17T04:23:35.342Z,64.51
2023-03-17T04:26:04.039Z,64.84
2023-03-17T04:28:31.936Z,65.06
2023-03-17T04:30:59.854Z,64.08
2023-03-17T04:33:27.749Z,64.40
2023-03-17T04:35:55.960Z,64.23
2023-03-17T04:38:25.397Z,64.37
2023-03-17T04:40:53.352Z,64.28
2023-03-17T04:43:21.272Z,63.39
2023-03-17T04:45:49.198Z,63.11
2023-03-17T04:48:17.154Z,62.74
2023-03-17T04:50:47.788Z,62.52
2023-03-17T04:53:15.808Z,62.41
2023-03-17T04:55:45.451Z,61.58
2023-03-17T04:58:29.534Z,61.88
2023-03-17T05:00:58.692Z,61.74
2023-03-17T05:03:28.312Z,61.51
2023-03-17T05:05:57.367Z,61.68
2023-03-17T05:08:26.218Z,61.57
2023-03-17T05:10:55.990Z,61.55
2023-03-17T05:13:24.895Z,61.22
2023-03-17T05:15:54.384Z,61.62
